createdAt,value
2022-09-06T00:01:23.709Z,83.15
2022-09-06T00:03:53.934Z,83.10
2022-09-06T00:06:23.927Z,82.61
2022-09-06T00:08:52.130Z,83.22
2022-09-06T00:11:22.322Z,83.94
2022-09-06T00:13:50.906Z,83.47
2022-09-06T00:16:29.786Z,82.82
2022-09-06T00:18:59.368Z,83.05
2022-09-06T00:21:29.874Z,83.15
2022-09-06T00:23:58.172Z,83.52
2022-09-06T00:26:26.841Z,84.24
2022-09-06T00:28:55.103Z,84.40
2022-09-06T00:31:26.076Z,85.10
2022-09-06T00:33:54.850Z,85.25
2022-09-06T00:36:24.043Z,84.72
2022-09-06T00:38:53.110Z,84.47
2022-09-06T00:41:22.017Z,84.02
2022-09-06T00:43:50.365Z,83.56
2022-09-06T00:46:23.961Z,83.04
2022-09-06T00:48:59.137Z,83.19
2022-09-06T00:51:30.474Z,82.86
2022-09-06T00:54:03.432Z,83.07
2022-09-06T00:56:35.596Z,83.05
2022-09-06T00:59:04.288Z,83.29
2022-09-06T01:01:34.293Z,83.42
2022-09-06T01:04:04.069Z,83.36
2022-09-06T01:06:44.425Z,84.06
2022-09-06T01:09:25.095Z,83.64
2022-09-06T01:11:59.627Z,83.51
2022-09-06T01:14:46.296Z,83.93
2022-09-06T01:17:46.491Z,84.53
2022-09-06T01:20:25.150Z,84.71
2022-09-06T01:23:31.007Z,84.79
2022-09-06T01:26:18.620Z,83.93
2022-09-06T01:28:48.830Z,83.03
2022-09-06T01:31:23.092Z,82.00
2022-09-06T01:33:58.332Z,81.99
2022-09-06T01:36:33.435Z,82.44
2022-09-06T01:39:02.260Z,82.58
2022-09-06T01:41:31.487Z,82.25
2022-09-06T01:44:00.306Z,82.13
2022-09-06T01:46:57.339Z,81.98
2022-09-06T01:50:05.861Z,82.64
2022-09-06T01:52:44.398Z,83.95
2022-09-06T01:55:28.543Z,83.82
2022-09-06T01:57:59.698Z,83.21
2022-09-06T02:00:27.864Z,84.16
2022-09-06T02:03:03.188Z,84.88
2022-09-06T02:05:51.369Z,85.69
2022-09-06T02:08:28.508Z,85.69
2022-09-06T02:11:02.178Z,86.50
2022-09-06T02:13:36.892Z,87.79
2022-09-06T02:16:09.071Z,87.29
2022-09-06T02:18:43.991Z,87.75
2022-09-06T02:21:17.708Z,87.45
2022-09-06T02:23:47.630Z,86.86
2022-09-06T02:26:22.226Z,86.01
2022-09-06T02:28:50.750Z,87.42
2022-09-06T02:31:33.864Z,90.13
2022-09-06T02:34:03.072Z,90.85
2022-09-06T02:36:32.497Z,90.60
2022-09-06T02:39:05.885Z,90.66
2022-09-06T02:41:35.292Z,90.16
2022-09-06T02:44:03.978Z,90.16
2022-09-06T02:46:33.156Z,88.72
2022-09-06T02:49:02.330Z,87.40
2022-09-06T02:51:31.255Z,86.65
2022-09-06T02:53:59.484Z,86.83
2022-09-06T02:56:29.281Z,87.15
2022-09-06T02:58:57.669Z,87.26
2022-09-06T03:01:26.675Z,87.08
2022-09-06T03:03:54.934Z,86.95
2022-09-06T03:06:23.948Z,87.70
2022-09-06T03:08:52.313Z,88.78
2022-09-06T03:11:21.804Z,88.48
2022-09-06T03:13:51.206Z,88.00
2022-09-06T03:16:20.428Z,87.42
2022-09-06T03:18:49.625Z,87.30
2022-09-06T03:21:17.810Z,87.09
2022-09-06T03:23:46.121Z,87.28
2022-09-06T03:26:16.332Z,87.21
2022-09-06T03:28:46.155Z,86.86
2022-09-06T03:31:14.532Z,86.46
2022-09-06T03:33:43.251Z,86.37
2022-09-06T03:36:11.961Z,86.37
2022-09-06T03:38:40.404Z,86.44
2022-09-06T03:41:09.354Z,86.07
2022-09-06T03:43:37.652Z,85.37
2022-09-06T03:46:06.116Z,85.13
2022-09-06T03:48:34.494Z,84.80
2022-09-06T03:51:04.071Z,84.60
2022-09-06T03:53:32.853Z,84.60
2022-09-06T03:56:01.056Z,85.02
2022-09-06T03:58:32.204Z,85.16
2022-09-06T04:01:07.392Z,85.01
2022-09-06T04:03:37.076Z,84.91
2022-09-06T04:06:07.832Z,84.74
2022-09-06T04:08:37.589Z,84.96
2022-09-06T04:11:06.814Z,85.08
2022-09-06T04:13:36.694Z,84.74
2022-09-06T04:16:06.574Z,84.21
2022-09-06T04:18:35.864Z,83.61
2022-09-06T04:21:05.964Z,83.55
2022-09-06T04:23:37.742Z,82.45
2022-09-06T04:26:08.332Z,82.40
2022-09-06T04:28:36.821Z,82.40
2022-09-06T04:31:05.630Z,82.63
2022-09-06T04:33:36.707Z,83.77
2022-09-06T04:36:08.919Z,84.47
2022-09-06T04:38:43.412Z,84.52
2022-09-06T04:41:13.001Z,84.68
2022-09-06T04:43:43.790Z,84.60
2022-09-06T04:46:28.242Z,84.32
2022-09-06T04:49:04.325Z,84.24
2022-09-06T04:51:39.398Z,83.67
2022-09-06T04:54:11.298Z,79.90
2022-09-06T04:56:56.024Z,79.57
2022-09-06T04:59:31.589Z,79.78
2022-09-06T05:02:00.939Z,78.89
2022-09-06T05:04:36.660Z,79.31
2022-09-06T05:07:14.690Z,79.02
2022-09-06T05:09:43.457Z,78.73
2022-09-06T05:12:12.693Z,78.93
2022-09-06T05:14:41.257Z,78.92
2022-09-06T05:17:10.237Z,79.31
2022-09-06T05:19:39.093Z,79.53
2022-09-06T05:22:07.513Z,79.52
2022-09-06T05:24:36.156Z,79.18
2022-09-06T05:27:05.759Z,78.76
2022-09-06T06:35:25.622Z,50.17
2022-09-06T06:38:03.942Z,49.38
2022-09-06T06:40:39.166Z,47.54
2022-09-06T06:43:15.250Z,44.17
2022-09-06T09:21:10.855Z,27.32
2022-09-06T09:24:06.600Z,27.60
2022-09-06T09:27:08.422Z,27.48
2022-09-06T09:32:55.576Z,28.09
2022-09-06T09:35:27.701Z,27.88
2022-09-06T09:38:10.857Z,27.82
2022-09-06T09:40:50.678Z,27.70
2022-09-06T09:43:35.793Z,28.63
2022-09-06T09:46:24.944Z,28.41
2022-09-06T09:49:22.106Z,28.09
2022-09-06T09:52:26.856Z,27.96
2022-09-06T09:55:04.888Z,28.60
2022-09-06T09:57:49.508Z,28.92
2022-09-06T10:00:39.958Z,29.06
2022-09-06T10:03:14.999Z,31.60
2022-09-06T10:06:02.515Z,31.64
2022-09-06T10:08:40.229Z,32.18
2022-09-06T10:11:14.345Z,32.69
2022-09-06T10:13:43.409Z,33.65
2022-09-06T10:16:13.577Z,33.77
2022-09-06T10:18:46.607Z,34.64
2022-09-06T10:21:24.154Z,33.87
2022-09-06T10:24:26.766Z,34.32
2022-09-06T10:27:03.558Z,34.36
2022-09-06T10:29:50.425Z,34.66
2022-09-06T10:32:31.942Z,34.98
2022-09-06T10:35:11.195Z,35.36
2022-09-06T10:37:39.715Z,35.63
2022-09-06T10:40:12.214Z,35.24
2022-09-06T10:42:56.501Z,35.16
2022-09-06T10:45:36.892Z,35.35
2022-09-06T10:48:14.699Z,35.62
2022-09-06T10:51:23.003Z,35.51
2022-09-06T10:53:58.636Z,35.96
2022-09-06T10:56:50.239Z,36.87
2022-09-06T11:02:44.322Z,38.73
2022-09-06T11:11:23.433Z,39.14
2022-09-06T11:13:54.040Z,39.39
2022-09-06T11:16:28.542Z,41.25
2022-09-06T11:19:17.990Z,40.94
2022-09-06T11:22:05.794Z,39.89
2022-09-06T11:24:37.321Z,39.66
2022-09-06T11:27:07.052Z,39.67
2022-09-06T11:29:40.182Z,40.20
2022-09-06T11:32:29.092Z,40.26
2022-09-06T11:35:01.094Z,40.74
2022-09-06T11:37:43.233Z,40.90
2022-09-06T11:42:59.595Z,40.14
2022-09-06T11:45:52.122Z,39.93
2022-09-06T11:48:24.565Z,40.14
2022-09-06T11:50:55.711Z,40.87
2022-09-06T11:53:28.803Z,40.98
2022-09-06T11:55:58.970Z,40.85
2022-09-06T11:58:34.080Z,41.05
2022-09-06T12:01:21.103Z,40.66
2022-09-06T12:04:06.201Z,40.79
2022-09-06T12:07:05.320Z,39.98
2022-09-06T12:09:36.881Z,40.16
2022-09-06T12:12:06.042Z,40.82
2022-09-06T12:14:41.444Z,41.29
2022-09-06T12:17:11.705Z,41.60
2022-09-06T12:19:53.851Z,41.65
2022-09-06T12:22:36.916Z,41.58
2022-09-06T12:25:23.966Z,42.74
2022-09-06T12:28:00.310Z,42.65
2022-09-06T12:30:42.622Z,42.29
2022-09-06T12:33:38.983Z,42.13
2022-09-06T12:36:18.647Z,41.89
2022-09-06T12:39:08.500Z,43.04
2022-09-06T12:41:43.249Z,43.75
2022-09-06T12:44:15.120Z,43.99
2022-09-06T12:46:51.968Z,43.23
2022-09-06T12:49:26.049Z,43.78
2022-09-06T12:52:07.020Z,43.26
2022-09-06T12:54:43.806Z,43.81
2022-09-06T12:57:21.867Z,42.30
2022-09-06T12:59:54.172Z,42.20
2022-09-06T13:02:41.372Z,41.51
2022-09-06T13:05:13.502Z,40.87
2022-09-06T13:07:52.538Z,42.73
2022-09-06T13:10:26.691Z,42.42
2022-09-06T13:12:58.984Z,41.44
2022-09-06T13:15:31.580Z,40.93
2022-09-06T13:18:27.793Z,41.23
2022-09-06T13:21:01.885Z,42.74
2022-09-06T13:23:40.069Z,44.12
2022-09-06T13:26:08.888Z,43.59
2022-09-06T13:28:38.888Z,43.17
2022-09-06T13:31:14.625Z,42.01
2022-09-06T13:33:44.067Z,42.20
2022-09-06T13:36:12.842Z,42.60
2022-09-06T13:38:44.283Z,42.61
2022-09-06T13:41:25.958Z,42.99
2022-09-06T13:44:04.910Z,43.84
2022-09-06T13:46:35.342Z,43.68
2022-09-06T13:49:05.868Z,44.19
2022-09-06T13:51:35.795Z,43.70
2022-09-06T13:54:10.746Z,43.31
2022-09-06T13:56:40.996Z,43.03
2022-09-06T13:59:12.397Z,43.06
2022-09-06T14:01:44.938Z,43.21
2022-09-06T14:04:19.956Z,43.92
2022-09-06T14:06:51.383Z,43.53
2022-09-06T14:09:20.987Z,42.65
2022-09-06T14:11:52.654Z,43.22
2022-09-06T14:14:23.993Z,44.48
2022-09-06T14:16:54.375Z,44.85
2022-09-06T14:19:23.742Z,44.65
2022-09-06T14:21:54.621Z,44.19
2022-09-06T14:24:23.861Z,44.27
2022-09-06T14:26:52.706Z,44.86
2022-09-06T14:29:24.624Z,45.09
2022-09-06T14:31:55.911Z,45.18
2022-09-06T14:34:26.071Z,44.87
2022-09-06T14:36:55.053Z,44.91
2022-09-06T14:39:23.517Z,44.79
2022-09-06T14:41:52.549Z,44.14
2022-09-06T14:44:22.535Z,44.36
2022-09-06T14:46:53.773Z,43.76
2022-09-06T14:49:22.325Z,44.07
2022-09-06T14:51:54.034Z,44.34
2022-09-06T14:54:26.194Z,44.54
2022-09-06T14:56:57.901Z,43.89
2022-09-06T14:59:27.168Z,43.62
2022-09-06T15:01:57.875Z,44.08
2022-09-06T15:04:30.197Z,45.12
2022-09-06T15:07:01.065Z,45.44
2022-09-06T15:09:30.762Z,45.88
2022-09-06T15:12:01.458Z,46.22
2022-09-06T15:14:30.530Z,46.48
2022-09-06T15:17:00.975Z,46.73
2022-09-06T15:19:32.232Z,46.66
2022-09-06T15:22:01.407Z,46.75
2022-09-06T15:24:30.660Z,47.19
2022-09-06T15:27:39.837Z,47.69
2022-09-06T15:30:12.005Z,48.94
2022-09-06T15:32:43.454Z,49.57
2022-09-06T15:35:12.410Z,49.69
2022-09-06T15:37:42.738Z,50.45
2022-09-06T15:40:14.222Z,50.88
2022-09-06T15:42:45.314Z,50.72
2022-09-06T15:45:14.373Z,50.80
2022-09-06T15:47:44.069Z,50.79
2022-09-06T15:50:25.306Z,50.94
2022-09-06T15:53:03.527Z,51.27
2022-09-06T15:55:50.820Z,51.21
2022-09-06T15:58:20.332Z,51.22
2022-09-06T16:01:20.796Z,50.71
2022-09-06T16:03:55.576Z,51.42
2022-09-06T16:06:28.870Z,51.23
2022-09-06T16:09:05.555Z,51.24
2022-09-06T16:11:37.206Z,51.42
2022-09-06T16:14:08.140Z,51.72
2022-09-06T16:16:37.505Z,51.84
2022-09-06T16:19:07.418Z,52.37
2022-09-06T16:21:40.429Z,52.86
2022-09-06T16:24:11.775Z,52.91
2022-09-06T16:26:45.062Z,53.22
2022-09-06T16:29:16.620Z,54.07
2022-09-06T16:31:46.789Z,54.33
2022-09-06T16:34:16.755Z,54.53
2022-09-06T16:36:47.129Z,54.56
2022-09-06T16:39:16.045Z,54.50
2022-09-06T16:41:46.822Z,54.34
2022-09-06T16:44:18.579Z,54.56
2022-09-06T16:46:50.871Z,54.07
2022-09-06T16:49:21.112Z,54.46
2022-09-06T16:51:51.708Z,54.32
2022-09-06T16:54:21.088Z,54.49
2022-09-06T16:56:53.316Z,55.85
2022-09-06T16:59:22.630Z,56.21
2022-09-06T17:01:51.856Z,56.90
2022-09-06T17:04:21.268Z,57.24
2022-09-06T17:06:51.483Z,57.71
2022-09-06T17:09:21.223Z,57.87
2022-09-06T17:11:50.557Z,57.77
2022-09-06T17:14:19.562Z,57.51
2022-09-06T17:17:07.154Z,58.45
2022-09-06T17:19:45.074Z,59.57
2022-09-06T17:22:15.989Z,60.59
2022-09-06T17:24:45.105Z,61.28
2022-09-06T17:27:15.174Z,62.21
2022-09-06T17:29:44.021Z,62.64
2022-09-06T17:32:13.267Z,63.25
2022-09-06T17:34:42.656Z,63.97
2022-09-06T17:37:12.253Z,65.39
2022-09-06T17:39:42.414Z,66.36
2022-09-06T17:42:11.810Z,67.46
2022-09-06T17:44:40.287Z,68.20
2022-09-06T17:47:12.874Z,68.56
2022-09-06T17:49:45.078Z,68.76
2022-09-06T17:52:15.140Z,67.93
2022-09-06T17:54:46.857Z,68.14
2022-09-06T17:57:18.717Z,68.08
2022-09-06T17:59:47.937Z,68.55
2022-09-06T18:02:16.918Z,68.86
2022-09-06T18:04:45.923Z,69.22
2022-09-06T18:07:14.812Z,69.62
2022-09-06T18:09:43.891Z,70.67
2022-09-06T18:12:14.176Z,71.99
2022-09-06T18:14:44.149Z,73.18
2022-09-06T18:17:13.671Z,72.96
2022-09-06T18:19:45.077Z,73.19
2022-09-06T18:22:13.775Z,73.33
2022-09-06T18:24:42.286Z,74.76
2022-09-06T18:27:12.619Z,74.24
2022-09-06T18:29:41.598Z,73.85
2022-09-06T18:32:10.304Z,74.44
2022-09-06T18:34:39.754Z,73.79
2022-09-06T18:37:09.245Z,73.69
2022-09-06T18:39:37.758Z,73.35
2022-09-06T18:42:11.382Z,73.67
2022-09-06T18:44:40.739Z,74.43
2022-09-06T18:47:12.772Z,74.63
2022-09-06T18:49:44.271Z,75.13
2022-09-06T18:52:15.397Z,75.42
2022-09-06T18:54:45.268Z,76.82
2022-09-06T18:57:15.536Z,77.25
2022-09-06T18:59:44.959Z,76.97
2022-09-06T19:02:14.314Z,76.46
2022-09-06T19:04:42.838Z,76.20
2022-09-06T19:07:11.682Z,75.81
2022-09-06T19:09:40.046Z,75.50
2022-09-06T19:12:12.049Z,75.65
2022-09-06T19:14:40.682Z,76.07
2022-09-06T19:17:09.342Z,76.17
2022-09-06T19:19:39.431Z,76.25
2022-09-06T19:22:07.851Z,76.43
2022-09-06T19:24:39.626Z,76.54
2022-09-06T19:27:08.420Z,76.90
2022-09-06T19:29:38.251Z,76.78
2022-09-06T19:32:06.976Z,76.65
2022-09-06T19:34:35.802Z,76.86
2022-09-06T19:37:04.235Z,76.42
2022-09-06T19:39:37.007Z,76.28
2022-09-06T19:42:06.218Z,76.59
2022-09-06T19:44:34.597Z,76.31
2022-09-06T19:47:03.557Z,77.00
2022-09-06T19:49:32.376Z,77.59
2022-09-06T19:52:01.800Z,77.51
2022-09-06T19:54:31.289Z,77.94
2022-09-06T19:57:00.342Z,77.89
2022-09-06T19:59:28.876Z,78.35
2022-09-06T20:01:57.745Z,78.45
2022-09-06T20:04:28.487Z,78.40
2022-09-06T20:06:58.273Z,78.03
2022-09-06T20:09:26.774Z,78.67
2022-09-06T20:11:55.496Z,78.73
2022-09-06T20:14:25.956Z,78.84
2022-09-06T20:16:54.376Z,78.68
2022-09-06T20:19:22.821Z,78.99
2022-09-06T20:21:51.177Z,79.17
2022-09-06T20:24:21.207Z,78.82
2022-09-06T20:26:52.295Z,78.64
2022-09-06T20:29:21.530Z,78.83
2022-09-06T20:31:50.169Z,78.80
2022-09-06T20:34:18.991Z,78.74
2022-09-06T20:36:47.683Z,78.39
2022-09-06T20:39:16.070Z,78.88
2022-09-06T20:41:45.926Z,78.88
2022-09-06T20:44:15.657Z,78.71
2022-09-06T20:46:47.649Z,78.99
2022-09-06T20:49:16.881Z,79.21
2022-09-06T20:51:45.282Z,79.22
2022-09-06T20:54:14.304Z,78.96
2022-09-06T20:56:44.411Z,78.87
2022-09-06T20:59:13.760Z,78.08
2022-09-06T21:01:49.101Z,78.32
2022-09-06T21:04:18.337Z,78.80
2022-09-06T21:06:46.983Z,79.82
2022-09-06T21:09:15.799Z,80.30
2022-09-06T21:11:45.535Z,79.83
2022-09-06T21:14:15.187Z,79.62
2022-09-06T21:16:43.631Z,79.34
2022-09-06T21:19:12.779Z,79.31
2022-09-06T21:21:44.104Z,79.11
2022-09-06T21:24:16.376Z,78.91
2022-09-06T21:26:45.491Z,78.79
2022-09-06T21:29:14.217Z,78.40
2022-09-06T21:31:42.683Z,77.97
2022-09-06T21:34:17.193Z,77.82
2022-09-06T21:36:46.307Z,77.64
2022-09-06T21:39:15.108Z,77.76
2022-09-06T21:41:44.804Z,77.40
2022-09-06T21:44:13.764Z,76.95
2022-09-06T21:46:43.157Z,76.65
2022-09-06T21:49:14.018Z,76.44
2022-09-06T21:51:43.563Z,76.38
2022-09-06T21:54:12.981Z,76.39
2022-09-06T21:56:41.545Z,76.65
2022-09-06T21:59:11.205Z,76.20
2022-09-06T22:01:41.021Z,76.06
2022-09-06T22:04:10.618Z,76.16
2022-09-06T22:06:39.061Z,76.65
2022-09-06T22:09:11.285Z,76.98
2022-09-06T22:11:43.216Z,77.09
2022-09-06T22:14:15.500Z,77.02
2022-09-06T22:16:43.741Z,77.37
2022-09-06T22:19:13.699Z,77.35
2022-09-06T22:21:41.958Z,77.04
2022-09-06T22:24:13.428Z,77.18
2022-09-06T22:26:42.560Z,77.52
2022-09-06T22:29:15.851Z,77.45
2022-09-06T22:31:46.282Z,77.40
2022-09-06T22:34:14.487Z,78.09
2022-09-06T22:36:43.741Z,78.20
2022-09-06T22:39:12.719Z,78.00
2022-09-06T22:41:41.073Z,78.14
2022-09-06T22:44:09.560Z,78.11
2022-09-06T22:46:38.393Z,77.97
2022-09-06T22:49:10.130Z,77.79
2022-09-06T22:51:40.746Z,77.67
2022-09-06T22:54:10.006Z,77.85
2022-09-06T22:56:40.056Z,78.13
2022-09-06T22:59:08.879Z,77.97
2022-09-06T23:01:40.960Z,77.78
2022-09-06T23:04:10.023Z,78.03
2022-09-06T23:06:38.247Z,78.14
2022-09-06T23:09:07.210Z,78.57
2022-09-06T23:11:36.167Z,78.94
2022-09-06T23:14:05.722Z,78.90
2022-09-06T23:16:34.097Z,78.95
2022-09-06T23:19:02.705Z,78.71
2022-09-06T23:21:31.316Z,78.41
2022-09-06T23:24:00.188Z,78.23
2022-09-06T23:26:30.716Z,78.31
2022-09-06T23:28:59.241Z,78.37
2022-09-06T23:31:29.736Z,78.27
2022-09-06T23:33:59.887Z,78.06
2022-09-06T23:36:28.481Z,78.19
2022-09-06T23:38:57.450Z,78.11
2022-09-06T23:41:26.201Z,78.01
2022-09-06T23:43:56.260Z,77.97
2022-09-06T23:46:25.805Z,78.05
2022-09-06T23:48:53.981Z,77.99
2022-09-06T23:51:22.243Z,77.79
2022-09-06T23:53:50.641Z,77.48
2022-09-06T23:56:19.697Z,77.80
2022-09-06T23:58:48.706Z,77.93
